Time;durP1;ratioP1;P1;durP2;ratioP2;P2;SDS_P1;SDS_P2;PMS_P1;PMS_P2;Temp;Humidity;BMP_temperature;BMP_pressure;BME280_temperature;BME280_humidity;BME280_pressure;Samples;Min_cycle;Max_cycle;Signal;HPM_P1;HPM_P2
2022/05/23 00:02:29;;;;;;;1.90;1.70;;;16.10;99.90;;;17.00;100.00;97386.09;5020848;28;20491;-75
2022/05/23 00:04:59;;;;;;;8.60;2.50;;;16.00;99.90;;;16.97;100.00;97383.94;5019412;28;20488;-75
2022/05/23 00:07:33;;;;;;;3.40;1.83;;;16.00;99.90;;;16.92;100.00;97392.59;5021034;28;20470;-75
2022/05/23 00:10:07;;;;;;;3.40;1.80;;;16.00;99.90;;;16.90;100.00;97384.09;5017681;28;20519;-75
2022/05/23 00:12:37;;;;;;;5.63;2.00;;;16.00;99.90;;;16.87;100.00;97378.53;5019538;28;20486;-75
2022/05/23 00:15:11;;;;;;;1.93;1.73;;;15.90;99.90;;;16.84;100.00;97373.72;5020189;28;20949;-75
2022/05/23 00:17:41;;;;;;;3.63;1.90;;;15.90;99.90;;;16.81;100.00;97375.00;5019505;28;20481;-75
2022/05/23 00:20:14;;;;;;;2.40;1.87;;;15.80;99.90;;;16.78;100.00;97359.66;5020223;28;20469;-76
2022/05/23 00:22:45;;;;;;;3.60;1.80;;;15.80;99.90;;;16.75;100.00;97360.13;5019350;28;20509;-75
2022/05/23 00:25:18;;;;;;;3.60;2.13;;;15.80;99.90;;;16.72;100.00;97349.25;5018737;28;21248;-75
2022/05/23 00:27:47;;;;;;;2.00;1.80;;;15.80;99.90;;;16.71;100.00;97342.38;5020412;28;20941;-75
2022/05/23 00:30:21;;;;;;;9.67;1.90;;;15.70;99.90;;;16.67;100.00;97330.69;5023699;28;20841;-75
2022/05/23 00:35:38;;;;;;;5.00;2.03;;;15.70;99.90;;;16.60;100.00;97331.66;5020090;28;20435;-75
2022/05/23 00:38:07;;;;;;;5.20;2.10;;;15.60;99.90;;;16.54;100.00;97324.69;5023139;28;20539;-75
2022/05/23 00:40:48;;;;;;;2.67;2.17;;;15.60;99.90;;;16.53;100.00;97324.94;5021056;28;20460;-75
2022/05/23 00:43:22;;;;;;;2.77;1.53;;;15.50;99.90;;;16.49;100.00;97323.81;5020240;28;20451;-75
2022/05/23 00:45:56;;;;;;;4.23;1.93;;;15.50;99.90;;;16.47;100.00;97328.53;5020826;28;20462;-75
2022/05/23 00:48:29;;;;;;;4.20;2.20;;;15.50;99.90;;;16.43;100.00;97324.78;5020037;28;20976;-75
2022/05/23 00:51:07;;;;;;;3.03;1.87;;;15.50;99.90;;;16.38;100.00;97317.59;5019194;28;20475;-76
2022/05/23 00:53:43;;;;;;;3.47;2.30;;;15.40;99.90;;;16.36;100.00;97313.59;5018704;28;20557;-77
2022/05/23 00:56:18;;;;;;;2.10;1.73;;;15.40;99.90;;;16.33;100.00;97303.53;5018560;28;20546;-75
2022/05/23 00:58:52;;;;;;;4.20;2.00;;;15.30;99.90;;;16.30;100.00;97291.63;5019166;28;20461;-75
2022/05/23 01:01:28;;;;;;;3.63;2.13;;;15.30;99.90;;;16.30;100.00;97282.91;5020558;28;20910;-75
2022/05/23 01:03:58;;;;;;;4.10;2.40;;;15.30;99.90;;;16.28;100.00;97285.00;5025191;28;20877;-75
2022/05/23 01:06:28;;;;;;;5.13;2.17;;;15.20;99.90;;;16.26;100.00;97279.94;5032030;28;20466;-75
2022/05/23 01:08:59;;;;;;;3.70;1.87;;;15.30;99.90;;;16.24;100.00;97268.84;5018658;28;20460;-75
2022/05/23 01:11:31;;;;;;;1.73;1.60;;;15.30;99.90;;;16.23;100.00;97261.97;5017411;28;20930;-75
2022/05/23 01:14:01;;;;;;;2.33;2.03;;;15.20;99.90;;;16.21;100.00;97264.03;5019043;28;20536;-75
2022/05/23 01:16:32;;;;;;;2.37;2.10;;;15.20;99.90;;;16.18;100.00;97264.50;5016643;28;20513;-75
2022/05/23 01:19:01;;;;;;;7.50;2.20;;;15.20;99.90;;;16.15;100.00;97259.72;5017488;28;20467;-75
2022/05/23 01:21:48;;;;;;;2.57;2.10;;;15.10;99.90;;;16.15;100.00;97262.38;5015396;28;20473;-75
2022/05/23 01:24:30;;;;;;;3.50;2.07;;;15.10;99.90;;;16.14;100.00;97252.06;5018639;28;20960;-75
2022/05/23 01:27:03;;;;;;;8.10;2.03;;;15.10;99.90;;;16.13;100.00;97261.00;5017817;28;20921;-75
2022/05/23 01:29:34;;;;;;;2.57;2.10;;;15.10;99.90;;;16.09;100.00;97250.94;5019073;28;20465;-75
2022/05/23 01:32:07;;;;;;;2.43;2.00;;;15.10;99.90;;;16.07;100.00;97255.66;5024260;28;20476;-75
2022/05/23 01:34:36;;;;;;;6.30;2.30;;;15.10;99.90;;;16.06;100.00;97253.28;5025731;28;20488;-75
2022/05/23 01:37:06;;;;;;;8.03;2.73;;;15.10;99.90;;;16.05;100.00;97255.09;5019564;28;20466;-75
2022/05/23 01:39:35;;;;;;;3.13;1.93;;;15.10;99.90;;;16.02;100.00;97265.34;5017241;28;20471;-75
2022/05/23 01:42:08;;;;;;;3.73;2.07;;;15.10;99.90;;;16.01;100.00;97264.53;5017350;28;20475;-75
2022/05/23 01:44:38;;;;;;;5.73;2.40;;;15.10;99.90;;;16.02;100.00;97268.78;5020512;28;20466;-75
2022/05/23 01:47:14;;;;;;;5.60;2.27;;;15.10;99.90;;;16.02;100.00;97267.97;5018326;28;20989;-75
2022/05/23 01:49:43;;;;;;;3.53;2.00;;;15.10;99.90;;;16.02;100.00;97273.25;5016495;28;20466;-75
2022/05/23 01:52:13;;;;;;;4.90;2.10;;;15.00;99.90;;;16.04;100.00;97266.69;5018364;28;20471;-75
2022/05/23 01:54:42;;;;;;;5.97;2.00;;;15.00;99.90;;;16.04;100.00;97258.78;5016982;28;20516;-75
2022/05/23 01:57:14;;;;;;;8.40;2.47;;;15.00;99.90;;;16.04;100.00;97252.69;5017621;28;20471;-75
2022/05/23 02:02:30;;;;;;;3.13;2.00;;;15.10;99.90;;;16.01;100.00;97232.09;5017738;28;20807;-75
2022/05/23 02:05:03;;;;;;;5.53;2.47;;;15.10;99.90;;;15.99;100.00;97231.53;5019689;28;20470;-75
2022/05/23 02:07:34;;;;;;;3.67;2.20;;;15.00;99.90;;;15.97;100.00;97237.03;5018215;28;20853;-75
2022/05/23 02:10:04;;;;;;;9.90;2.57;;;15.10;99.90;;;15.97;100.00;97225.69;5018220;28;20467;-76
2022/05/23 02:12:35;;;;;;;6.83;2.60;;;15.20;99.90;;;15.95;100.00;97211.97;5016569;28;20462;-75
2022/05/23 02:15:07;;;;;;;5.53;2.47;;;15.00;99.90;;;15.97;100.00;97199.31;5017753;28;20601;-75
2022/05/23 02:17:38;;;;;;;5.83;2.83;;;15.10;99.90;;;15.98;100.00;97190.38;5017988;28;20524;-75
2022/05/23 02:20:09;;;;;;;3.83;2.33;;;15.10;99.90;;;15.96;100.00;97188.00;5017169;28;20498;-75
2022/05/23 02:22:40;;;;;;;5.50;2.33;;;15.10;99.90;;;15.95;100.00;97202.22;5017205;28;20890;-75
2022/05/23 02:25:10;;;;;;;2.83;2.20;;;15.00;99.90;;;15.95;100.00;97212.75;5017309;28;20469;-75
2022/05/23 02:27:41;;;;;;;3.27;2.33;;;15.00;99.90;;;15.97;100.00;97212.50;5017117;28;20562;-75
2022/05/23 02:30:13;;;;;;;2.43;2.00;;;15.10;99.90;;;15.97;100.00;97215.94;5018736;28;20494;-75
2022/05/23 02:32:45;;;;;;;2.87;2.20;;;15.00;99.90;;;15.97;100.00;97215.13;5015423;28;20461;-75
2022/05/23 02:35:16;;;;;;;4.40;2.43;;;15.00;99.90;;;15.98;100.00;97228.09;5023197;28;20568;-75
2022/05/23 02:37:46;;;;;;;3.83;2.40;;;15.00;99.90;;;15.99;100.00;97236.81;5015135;28;20462;-75
2022/05/23 02:40:16;;;;;;;3.30;2.00;;;15.00;99.90;;;15.98;100.00;97248.41;5017065;28;20458;-75
2022/05/23 02:42:47;;;;;;;4.70;2.47;;;15.00;99.90;;;15.95;100.00;97254.97;5015589;28;20497;-75
2022/05/23 02:45:17;;;;;;;3.37;2.30;;;15.10;99.90;;;15.93;100.00;97264.16;5015448;28;20540;-75
2022/05/23 02:47:47;;;;;;;5.20;2.50;;;15.20;99.90;;;15.96;100.00;97271.59;5017133;28;20532;-76
2022/05/23 02:50:17;;;;;;;3.37;2.47;;;15.10;99.90;;;15.94;100.00;97278.91;5016623;28;20533;-75
2022/05/23 02:52:46;;;;;;;6.63;2.50;;;15.10;99.90;;;15.94;100.00;97284.19;5017081;28;20478;-75
2022/05/23 02:55:16;;;;;;;3.63;2.53;;;15.00;99.90;;;15.96;100.00;97290.84;5015767;28;20961;-75
2022/05/23 02:57:48;;;;;;;8.27;3.10;;;15.00;99.90;;;15.95;100.00;97286.59;5017123;28;20484;-75
2022/05/23 03:00:21;;;;;;;5.23;2.47;;;15.00;99.90;;;15.95;100.00;97291.88;5016415;28;20468;-75
2022/05/23 03:03:04;;;;;;;3.97;2.60;;;15.00;99.90;;;15.95;100.00;97293.72;5016292;28;20470;-75
2022/05/23 03:05:39;;;;;;;8.13;2.80;;;15.10;99.90;;;15.96;100.00;97309.31;5019537;28;20458;-75
2022/05/23 03:08:10;;;;;;;5.27;3.10;;;15.00;99.90;;;15.95;100.00;97302.44;5021356;28;20463;-75
2022/05/23 03:10:40;;;;;;;7.90;2.30;;;15.00;99.90;;;15.95;100.00;97306.91;5027074;28;20465;-91
2022/05/23 03:13:12;;;;;;;2.37;2.10;;;15.00;99.90;;;15.96;100.00;97303.22;5021215;28;20573;-76
2022/05/23 03:15:42;;;;;;;5.57;2.70;;;15.00;99.90;;;15.96;100.00;97305.88;5022175;28;20490;-76
2022/05/23 03:18:12;;;;;;;4.30;2.43;;;15.10;99.90;;;15.95;100.00;97312.16;5020966;28;20468;-76
2022/05/23 03:20:41;;;;;;;7.60;2.70;;;15.10;99.90;;;15.94;100.00;97316.63;5024225;28;20490;-88
2022/05/23 03:28:49;;;;;;;5.10;2.47;;;15.00;99.90;;;15.94;100.00;97306.09;5020141;28;21016;-76
2022/05/23 03:31:19;;;;;;;7.50;3.43;;;15.10;99.90;;;15.93;100.00;97303.72;5019189;28;20469;-76
2022/05/23 03:33:49;;;;;;;4.93;2.50;;;15.10;99.90;;;15.92;100.00;97302.09;5022142;28;20454;-76
2022/05/23 03:36:19;;;;;;;5.43;3.10;;;15.10;99.90;;;15.91;100.00;97293.38;5025547;28;20458;-76
2022/05/23 03:38:48;;;;;;;16.20;2.60;;;15.00;99.90;;;15.92;100.00;97283.66;5022313;28;20504;-76
2022/05/23 03:41:17;;;;;;;8.07;2.87;;;15.10;99.90;;;15.92;100.00;97276.53;5022141;28;20459;-76
2022/05/23 03:43:48;;;;;;;4.40;2.70;;;15.00;99.90;;;15.92;100.00;97276.53;5020554;28;20490;-76
2022/05/23 03:46:18;;;;;;;37.97;19.27;;;15.00;99.90;;;15.92;100.00;97275.72;5022871;28;20482;-89
2022/05/23 03:48:48;;;;;;;7.70;4.77;;;15.00;99.90;;;15.91;100.00;97266.22;5019970;28;21038;-76
2022/05/23 03:51:19;;;;;;;7.27;4.20;;;15.00;99.90;;;15.92;100.00;97257.28;5020660;28;20565;-76
2022/05/23 03:53:49;;;;;;;17.30;8.50;;;15.00;99.90;;;15.88;100.00;97241.13;5023660;28;20523;-77
2022/05/23 03:56:19;;;;;;;9.03;4.10;;;15.00;99.90;;;15.90;100.00;97240.88;5018963;28;20563;-76
2022/05/23 03:58:50;;;;;;;11.63;3.30;;;15.00;99.90;;;15.89;100.00;97228.75;5019640;28;20461;-75
2022/05/23 04:01:22;;;;;;;8.93;2.70;;;15.00;99.90;;;15.88;100.00;97221.88;5021251;28;20474;-75
2022/05/23 04:03:51;;;;;;;3.93;2.93;;;15.00;99.90;;;15.86;100.00;97208.13;5022952;28;21487;-76
2022/05/23 04:06:21;;;;;;;5.87;3.40;;;15.00;99.90;;;15.84;100.00;97215.47;5024886;28;20450;-76
2022/05/23 04:08:50;;;;;;;11.90;3.03;;;15.00;99.90;;;15.80;100.00;97204.63;5024119;28;20553;-76
2022/05/23 04:11:20;;;;;;;7.67;2.83;;;15.00;99.90;;;15.80;100.00;97194.06;5019903;28;20861;-76
2022/05/23 04:13:51;;;;;;;4.27;3.03;;;15.00;99.90;;;15.79;100.00;97187.19;5019505;28;20525;-76
2022/05/23 04:16:23;;;;;;;7.40;2.70;;;15.00;99.90;;;15.78;100.00;97184.81;5021617;28;20539;-76
2022/05/23 04:18:54;;;;;;;5.50;3.40;;;15.00;99.90;;;15.78;100.00;97195.34;5022021;28;20855;-76
2022/05/23 04:21:24;;;;;;;6.23;3.30;;;14.90;99.90;;;15.78;100.00;97185.63;5020008;28;20474;-76
2022/05/23 04:23:54;;;;;;;9.47;3.30;;;15.00;99.90;;;15.78;100.00;97169.00;5018251;28;20475;-76
2022/05/23 04:26:24;;;;;;;7.07;3.80;;;14.90;99.90;;;15.80;100.00;97167.69;5018054;28;20469;-86
2022/05/23 04:28:55;;;;;;;6.17;4.20;;;14.90;99.90;;;15.78;100.00;97151.34;5019690;28;20470;-76
2022/05/23 04:31:24;;;;;;;4.40;3.10;;;14.90;99.90;;;15.77;100.00;97147.09;5018030;28;20471;-76
2022/05/23 04:36:40;;;;;;;21.73;4.00;;;14.90;99.90;;;15.76;100.00;97061.13;5018146;28;20839;-76
2022/05/23 04:39:10;;;;;;;4.77;3.70;;;15.00;99.90;;;15.68;100.00;96965.88;5019680;28;20838;-76
2022/05/23 04:41:40;;;;;;;8.50;3.80;;;14.80;99.90;;;15.64;100.00;96956.88;5018038;28;20549;-76
2022/05/23 04:44:10;;;;;;;7.90;3.77;;;14.80;99.90;;;15.63;100.00;96921.00;5018669;28;20455;-75
2022/05/23 04:49:41;;;;;;;4.87;3.60;;;14.80;99.90;;;15.54;100.00;96881.94;5018139;28;20932;-76
2022/05/23 04:49:41;;;;;;;11.13;4.30;;;14.70;99.90;;;15.54;100.00;96879.31;5018172;28;20510;-86
2022/05/23 04:52:11;;;;;;;5.87;3.40;;;14.60;99.90;;;15.55;100.00;96928.31;5020520;28;20469;-76
2022/05/23 04:54:42;;;;;;;7.53;2.97;;;14.70;99.90;;;15.60;100.00;96948.66;5019996;28;20457;-76
2022/05/23 04:57:13;;;;;;;7.97;3.20;;;14.80;99.90;;;15.66;100.00;96934.50;5017094;28;20459;-76
2022/05/23 04:59:44;;;;;;;12.00;3.97;;;14.80;99.90;;;15.70;100.00;96971.69;5019075;28;20467;-76
2022/05/23 05:02:13;;;;;;;10.43;4.10;;;14.90;99.90;;;15.71;100.00;96997.03;5020490;28;20446;-76
2022/05/23 05:04:44;;;;;;;5.83;3.33;;;14.90;99.90;;;15.72;100.00;96977.53;5020954;28;20957;-76
2022/05/23 05:07:13;;;;;;;14.10;4.70;;;14.80;99.90;;;15.76;100.00;96965.47;5020323;28;20469;-76
2022/05/23 05:09:43;;;;;;;6.43;3.40;;;14.90;99.90;;;15.80;100.00;96961.28;5027468;28;20454;-76
2022/05/23 05:12:13;;;;;;;5.40;3.20;;;14.80;99.90;;;15.83;100.00;96955.50;5025919;28;20458;-76
2022/05/23 05:14:46;;;;;;;4.03;3.33;;;14.90;99.90;;;15.82;100.00;96967.09;5027582;28;20454;-76
2022/05/23 05:17:16;;;;;;;6.40;3.60;;;14.90;99.90;;;15.86;100.00;96961.06;5027215;28;21345;-76
2022/05/23 05:19:46;;;;;;;11.10;3.40;;;15.00;99.90;;;15.90;100.00;96961.38;5028030;28;20933;-76
2022/05/23 05:22:16;;;;;;;6.47;3.33;;;15.00;99.90;;;15.94;100.00;96951.94;5026127;28;20458;-76
2022/05/23 05:24:48;;;;;;;6.50;3.57;;;15.00;99.90;;;15.96;100.00;96944.59;5026721;28;20995;-76
2022/05/23 05:27:19;;;;;;;7.50;3.87;;;15.00;99.90;;;15.98;100.00;96931.94;5026003;28;20618;-76
2022/05/23 05:29:50;;;;;;;8.10;3.73;;;15.00;99.90;;;15.99;100.00;96930.91;5024905;28;20455;-76
2022/05/23 05:32:30;;;;;;;9.37;3.60;;;15.10;99.90;;;15.97;100.00;96928.50;5024992;28;20539;-76
2022/05/23 05:35:07;;;;;;;7.37;3.70;;;15.10;99.90;;;15.99;100.00;96929.06;5027012;28;20573;-75
2022/05/23 05:37:45;;;;;;;4.20;3.77;;;15.10;99.90;;;15.97;100.00;96930.34;5021576;28;20457;-76
2022/05/23 05:40:23;;;;;;;7.10;3.70;;;15.10;99.90;;;15.93;100.00;96934.53;5020634;28;20563;-76
2022/05/23 05:42:59;;;;;;;6.90;3.40;;;15.20;99.90;;;15.94;100.00;96941.38;5022326;28;20963;-76
2022/05/23 05:45:37;;;;;;;7.50;3.60;;;15.20;99.90;;;15.90;100.00;96951.63;5021010;28;20528;-76
2022/05/23 05:48:09;;;;;;;5.00;3.20;;;15.20;99.90;;;15.91;100.00;96952.44;5021589;28;20537;-76
2022/05/23 05:50:48;;;;;;;8.63;3.30;;;15.20;99.90;;;15.91;100.00;96969.06;5021218;28;20458;-76
2022/05/23 05:53:25;;;;;;;5.87;3.83;;;15.20;99.90;;;15.89;100.00;96999.34;5021790;28;20449;-76
2022/05/23 05:55:55;;;;;;;3.83;3.17;;;15.20;99.90;;;15.90;100.00;96993.03;5020099;28;20488;-76
2022/05/23 05:58:25;;;;;;;4.80;3.13;;;15.20;99.90;;;15.91;100.00;96970.88;5019646;28;20447;-75
2022/05/23 06:00:58;;;;;;;8.33;3.73;;;15.20;99.90;;;15.95;100.00;97008.91;5020611;28;20496;-76
2022/05/23 06:03:28;;;;;;;5.40;3.70;;;15.10;99.90;;;16.00;100.00;96998.44;5021026;28;20443;-76
2022/05/23 06:11:36;;;;;;;4.50;3.40;;;15.20;99.90;;;16.11;100.00;96993.00;5021562;28;20442;-76
2022/05/23 06:14:05;;;;;;;7.50;3.67;;;15.20;99.90;;;16.16;100.00;97002.81;5019275;28;20489;-76
2022/05/23 06:16:38;;;;;;;5.87;3.80;;;15.30;99.90;;;16.21;100.00;97005.50;5019848;28;21274;-76
2022/05/23 06:19:08;;;;;;;3.50;3.17;;;15.40;99.90;;;16.26;100.00;97013.47;5020056;28;20442;-76
2022/05/23 06:21:39;;;;;;;8.90;3.10;;;15.40;99.90;;;16.30;100.00;97022.50;5019403;28;20476;-76
2022/05/23 06:24:12;;;;;;;10.70;3.57;;;15.50;99.90;;;16.32;100.00;97020.38;5020410;28;20447;-76
2022/05/23 06:26:42;;;;;;;6.13;3.70;;;15.60;99.90;;;16.30;100.00;97019.84;5020264;28;20436;-76
2022/05/23 06:29:12;;;;;;;11.00;4.00;;;15.60;99.90;;;16.36;100.00;97024.13;5019906;28;20474;-76
2022/05/23 06:31:46;;;;;;;8.50;3.60;;;15.60;99.90;;;16.38;100.00;97035.22;5019818;28;20924;-76
2022/05/23 06:34:16;;;;;;;9.43;5.10;;;15.70;99.90;;;16.42;100.00;97033.69;5022445;28;20454;-76
2022/05/23 06:36:46;;;;;;;8.30;4.17;;;15.70;99.90;;;16.48;100.00;97032.72;5026483;28;20485;-76
2022/05/23 06:39:17;;;;;;;5.00;3.87;;;15.70;99.90;;;16.56;100.00;97029.63;5025450;28;20450;-76
2022/05/23 06:41:48;;;;;;;5.67;3.67;;;15.80;99.90;;;16.64;100.00;97027.59;5026647;28;20456;-76
2022/05/23 06:44:19;;;;;;;5.97;4.20;;;15.80;99.90;;;16.70;100.00;97021.31;5026961;28;20851;-76
2022/05/23 06:46:50;;;;;;;5.27;3.53;;;15.80;99.90;;;16.77;100.00;97024.53;5026580;28;20925;-76
2022/05/23 06:49:20;;;;;;;4.93;3.20;;;15.90;99.90;;;16.82;100.00;97016.66;5026123;28;20450;-76
2022/05/23 06:51:52;;;;;;;8.30;3.30;;;16.00;99.90;;;16.88;100.00;97020.94;4966618;28;1703927;-76
2022/05/23 06:54:24;;;;;;;4.07;3.60;;;16.00;99.90;;;16.92;100.00;97016.75;5026173;28;20194;-76
2022/05/23 06:56:54;;;;;;;8.17;3.73;;;16.00;99.90;;;16.99;100.00;97012.03;5026373;28;20482;-76
2022/05/23 06:59:23;;;;;;;4.30;3.07;;;16.10;99.90;;;17.05;100.00;97006.53;5026189;28;20469;-76
2022/05/23 07:01:54;;;;;;;7.20;3.90;;;16.10;99.90;;;17.09;100.00;97012.91;5026166;28;20465;-76
2022/05/23 07:04:24;;;;;;;10.60;3.30;;;16.20;99.90;;;17.14;100.00;97009.53;5026224;28;20439;-76
2022/05/23 07:12:29;;;;;;;5.20;3.80;;;16.50;99.90;;;17.30;100.00;97013.03;5026285;28;20952;-76
2022/05/23 07:14:59;;;;;;;11.20;4.57;;;16.50;99.90;;;17.35;100.00;97021.81;5025814;28;20951;-76
2022/05/23 07:17:32;;;;;;;12.50;3.43;;;16.50;99.90;;;17.38;100.00;97021.31;5027570;28;20518;-76
2022/05/23 07:20:05;;;;;;;5.13;2.83;;;16.50;99.90;;;17.44;100.00;97009.69;5025944;28;20952;-76
2022/05/23 07:22:39;;;;;;;6.57;3.37;;;16.60;99.90;;;17.50;100.00;97011.31;5020438;28;20939;-76
2022/05/23 07:25:10;;;;;;;6.10;3.23;;;16.60;99.90;;;17.56;100.00;97005.03;5020543;28;20439;-76
2022/05/23 07:27:39;;;;;;;6.43;3.60;;;16.80;99.90;;;17.60;100.00;96986.81;5020638;28;20812;-76
2022/05/23 07:30:11;;;;;;;4.30;3.50;;;16.80;99.90;;;17.63;100.00;96990.81;5019598;28;20446;-76
2022/05/23 07:32:43;;;;;;;5.37;3.30;;;16.80;99.90;;;17.69;100.00;96984.47;5018515;28;20500;-76
2022/05/23 07:35:13;;;;;;;4.80;3.30;;;16.80;99.90;;;17.75;100.00;96975.50;5019609;28;20501;-76
2022/05/23 07:37:43;;;;;;;3.67;3.10;;;16.90;99.90;;;17.77;100.00;96992.69;5019753;28;20484;-76
2022/05/23 07:40:14;;;;;;;3.93;3.17;;;16.90;99.90;;;17.79;100.00;97000.38;5019757;28;20502;-76
2022/05/23 07:42:46;;;;;;;7.40;3.43;;;17.00;99.90;;;17.77;100.00;96997.97;5020069;28;20498;-76
2022/05/23 07:45:16;;;;;;;4.63;2.97;;;17.00;99.90;;;17.79;100.00;97003.81;5019367;28;20466;-76
2022/05/23 07:47:46;;;;;;;7.20;3.53;;;17.10;99.90;;;17.81;100.00;97003.56;5018679;28;20557;-77
2022/05/23 07:50:17;;;;;;;5.80;3.13;;;17.10;99.90;;;17.84;100.00;97009.13;5020288;28;20459;-76
2022/05/23 08:01:03;;;;;;;4.80;3.07;;;17.30;99.90;;;17.94;100.00;96981.94;5023130;28;20547;-76
2022/05/23 08:03:35;;;;;;;4.10;3.00;;;17.30;99.90;;;17.96;100.00;96969.22;5019722;28;21324;-76
2022/05/23 08:06:06;;;;;;;6.60;3.43;;;17.40;99.90;;;18.02;100.00;96966.34;5024211;28;20939;-76
2022/05/23 08:08:36;;;;;;;3.03;2.57;;;17.40;99.90;;;18.06;100.00;96963.97;5022104;28;20449;-76
2022/05/23 08:11:09;;;;;;;7.80;3.20;;;17.40;99.90;;;18.10;100.00;96957.09;5022237;28;20939;-76
2022/05/23 08:13:42;;;;;;;4.23;2.80;;;17.40;99.90;;;18.15;100.00;96954.47;5023082;28;20459;-76
2022/05/23 08:16:12;;;;;;;6.07;3.00;;;17.50;99.90;;;18.22;100.00;96968.25;5022487;28;20500;-76
2022/05/23 08:18:42;;;;;;;5.20;2.77;;;17.60;99.90;;;18.31;100.00;96969.31;5021415;28;20473;-76
2022/05/23 08:21:15;;;;;;;11.37;3.17;;;17.70;99.90;;;18.38;100.00;96974.34;5026997;28;20929;-76
2022/05/23 08:23:46;;;;;;;4.90;3.00;;;17.70;99.90;;;18.47;100.00;96970.13;5028205;28;20888;-76
2022/05/23 08:26:16;;;;;;;11.47;2.90;;;17.80;99.90;;;18.53;100.00;96958.53;5028658;28;20934;-76
2022/05/23 08:28:46;;;;;;;4.00;2.80;;;17.80;99.90;;;18.57;100.00;96944.47;5029128;28;20442;-76
2022/05/23 08:31:16;;;;;;;8.20;2.70;;;17.90;99.90;;;18.65;100.00;96950.28;5028387;28;20486;-76
2022/05/23 08:33:48;;;;;;;7.00;3.00;;;18.00;99.90;;;18.70;100.00;96955.59;5028246;28;20458;-76
2022/05/23 08:36:18;;;;;;;4.70;3.10;;;18.10;99.90;;;18.74;100.00;96951.38;5027852;28;20453;-76
2022/05/23 08:38:49;;;;;;;10.33;2.90;;;18.10;99.90;;;18.79;100.00;96946.06;5028717;28;20485;-76
2022/05/23 08:41:27;;;;;;;7.23;2.53;;;18.10;99.90;;;18.85;100.00;96952.94;5027106;28;20481;-76
2022/05/23 08:44:15;;;;;;;3.20;2.80;;;18.10;99.90;;;18.85;100.00;96961.69;5028295;28;20548;-76
2022/05/23 08:46:58;;;;;;;4.30;2.53;;;18.30;99.90;;;18.89;100.00;96962.75;5028363;28;20447;-77
2022/05/23 08:49:47;;;;;;;7.63;2.47;;;18.30;99.90;;;18.92;100.00;96967.50;5028116;28;20458;-76
2022/05/23 08:52:26;;;;;;;3.50;2.37;;;18.40;99.90;;;18.97;100.00;96978.13;5028221;28;21047;-76
2022/05/23 08:55:02;;;;;;;7.30;2.70;;;18.40;99.90;;;19.00;100.00;96976.78;5028963;28;20462;-76
2022/05/23 08:57:40;;;;;;;3.00;2.60;;;18.40;99.90;;;19.03;100.00;96974.38;5027477;28;20527;-76
2022/05/23 09:00:15;;;;;;;5.73;2.70;;;18.40;99.90;;;19.06;100.00;96978.34;5028259;28;20466;-76
2022/05/23 09:02:52;;;;;;;4.30;2.70;;;18.40;99.90;;;19.10;100.00;96974.09;5025450;28;21015;-76
2022/05/23 09:05:32;;;;;;;5.70;3.20;;;18.40;99.90;;;19.11;100.00;96970.41;5022226;28;20442;-77
2022/05/23 09:08:28;;;;;;;4.43;3.10;;;18.40;99.90;;;19.17;100.00;96953.41;5021597;28;20450;-77
2022/05/23 09:11:06;;;;;;;6.60;2.90;;;18.50;99.90;;;19.22;100.00;96955.28;5023865;28;20442;-76
2022/05/23 09:13:44;;;;;;;5.73;2.57;;;18.50;99.90;;;19.30;100.00;96944.91;5021792;28;20446;-76
2022/05/23 09:16:15;;;;;;;5.33;2.70;;;18.70;99.90;;;19.33;100.00;96947.00;5021753;28;20473;-76
2022/05/23 09:18:52;;;;;;;3.10;2.00;;;18.70;99.90;;;19.42;100.00;96948.09;5022186;28;21004;-76
2022/05/23 09:22:12;;;;;;;3.73;2.60;;;18.80;99.90;;;19.44;100.00;96937.19;5019410;28;20481;-76
2022/05/23 09:24:16;;;;;;;6.27;2.50;;;18.90;99.90;;;19.49;100.00;96927.38;5021774;28;20453;-77
2022/05/23 09:26:48;;;;;;;3.63;2.50;;;18.90;99.90;;;19.54;100.00;96932.66;5022069;28;20453;-76
2022/05/23 09:29:18;;;;;;;3.10;2.57;;;18.90;99.90;;;19.62;100.00;96938.47;5022882;28;20445;-76
2022/05/23 09:31:55;;;;;;;4.43;3.00;;;19.00;99.90;;;19.66;100.00;96918.28;5020941;28;20461;-76
2022/05/23 09:34:35;;;;;;;5.27;2.60;;;19.20;99.90;;;19.72;100.00;96907.38;5020007;28;20962;-76
2022/05/23 09:37:22;;;;;;;3.50;2.33;;;19.20;99.90;;;19.82;100.00;96899.38;5022491;28;20446;-76
2022/05/23 09:39:56;;;;;;;3.40;2.40;;;19.30;99.90;;;19.88;100.00;96890.34;5021976;28;20446;-77
2022/05/23 09:48:23;;;;;;;9.57;2.70;;;19.60;99.90;;;20.23;100.00;96886.66;5020988;28;20545;-76
2022/05/23 09:51:05;;;;;;;4.90;2.60;;;19.70;99.90;;;20.30;100.00;96881.84;5020692;28;20493;-76
2022/05/23 09:53:52;;;;;;;7.13;2.37;;;19.80;99.90;;;20.43;100.00;96877.75;5020302;28;20465;-76
2022/05/23 09:56:32;;;;;;;8.20;2.70;;;19.80;99.90;;;20.52;100.00;96874.22;5021152;28;20884;-76
2022/05/23 09:59:08;;;;;;;7.57;3.00;;;20.00;99.90;;;20.62;100.00;96872.56;5020995;28;20481;-76
2022/05/23 10:01:38;;;;;;;5.03;2.60;;;20.10;99.90;;;20.68;100.00;96855.47;5021193;28;20978;-76
2022/05/23 10:04:17;;;;;;;4.13;2.80;;;20.20;99.90;;;20.81;100.00;96846.84;5026213;28;20450;-77
2022/05/23 10:06:50;;;;;;;8.17;2.73;;;20.30;99.90;;;20.88;100.00;96840.13;5028002;28;20448;-77
2022/05/23 10:09:34;;;;;;;9.80;2.60;;;20.50;99.90;;;20.95;100.00;96818.53;5027147;28;20557;-76
2022/05/23 10:12:10;;;;;;;11.20;3.30;;;20.50;99.90;;;21.00;100.00;96799.84;5025957;28;20454;-76
2022/05/23 10:14:47;;;;;;;6.80;2.03;;;20.60;99.90;;;21.03;100.00;96781.44;5026937;28;20511;-76
2022/05/23 10:17:30;;;;;;;10.10;2.43;;;20.60;99.90;;;21.11;100.00;96789.91;5026584;28;20968;-76
2022/05/23 10:20:42;;;;;;;4.90;2.43;;;20.60;99.90;;;21.21;100.00;96781.81;5027281;28;20811;-76
2022/05/23 10:23:19;;;;;;;4.30;2.23;;;20.60;99.90;;;21.27;100.00;96778.00;5026319;28;20962;-76
2022/05/23 10:26:02;;;;;;;5.10;2.37;;;20.60;99.90;;;21.29;100.00;96781.97;5025961;28;21304;-76
2022/05/23 10:28:48;;;;;;;4.40;2.43;;;20.60;99.90;;;21.32;100.00;96780.59;5026411;28;20439;-76
2022/05/23 10:31:31;;;;;;;4.20;2.80;;;20.60;99.90;;;21.32;100.00;96801.88;5026399;28;20446;-76
2022/05/23 10:34:09;;;;;;;5.90;2.30;;;20.70;99.90;;;21.34;100.00;96811.16;5026004;28;20815;-76
2022/05/23 10:36:41;;;;;;;5.00;2.70;;;20.70;99.90;;;21.33;100.00;96822.88;5026226;28;20482;-76
2022/05/23 10:42:22;;;;;;;17.77;2.90;;;20.60;99.90;;;21.35;100.00;96826.03;5021652;28;20442;-76
2022/05/23 10:45:22;;;;;;;7.37;4.30;;;20.60;99.90;;;21.37;100.00;96826.56;5019619;28;20457;-76
2022/05/23 10:48:38;;;;;;;8.17;2.37;;;20.60;99.90;;;21.43;100.00;96844.03;5019706;28;20490;-76
2022/05/23 10:51:33;;;;;;;7.63;2.80;;;20.70;99.90;;;21.49;100.00;96839.41;5014836;28;20980;-76
2022/05/23 10:54:17;;;;;;;5.67;2.80;;;20.80;99.90;;;21.55;100.00;96836.41;5022303;28;20454;-76
2022/05/23 10:57:27;;;;;;;7.33;2.30;;;20.90;99.90;;;21.58;100.00;96848.38;5019069;28;20442;-76
2022/05/23 11:00:07;;;;;;;3.03;2.40;;;20.90;99.90;;;21.65;100.00;96858.66;5019593;28;20499;-77
2022/05/23 11:02:54;;;;;;;6.70;3.20;;;21.00;99.90;;;21.70;100.00;96843.38;5020751;28;20438;-76
2022/05/23 11:05:32;;;;;;;5.63;2.63;;;21.10;99.90;;;21.73;100.00;96845.47;5020745;28;20454;-77
2022/05/23 11:08:36;;;;;;;6.20;2.47;;;21.20;99.90;;;21.74;100.00;96839.09;5020536;28;20453;-77
2022/05/23 11:11:15;;;;;;;4.93;2.47;;;21.10;99.90;;;21.81;100.00;96838.72;5021015;28;20564;-77
2022/05/23 11:14:09;;;;;;;4.00;2.30;;;21.20;99.90;;;21.89;100.00;96822.09;5020643;28;21015;-76
2022/05/23 11:16:53;;;;;;;6.90;2.77;;;21.30;99.90;;;21.94;100.00;96809.53;5021135;28;20435;-76
2022/05/23 11:19:33;;;;;;;4.43;2.57;;;21.30;99.90;;;22.01;100.00;96809.16;5019853;28;20482;-77
2022/05/23 11:22:14;;;;;;;5.00;2.63;;;21.30;99.90;;;22.06;100.00;96806.44;5020507;28;21231;-76
2022/05/23 11:24:56;;;;;;;3.57;2.50;;;21.40;99.90;;;22.11;100.00;96809.00;5018827;28;20445;-77